• Join FlightAware (Why Join?)
  • Login
  • US Flag 
06:24AM EDT


 

Airport Tracker/Info


-or-


 

Live Flight TrackerFlight Track Log ✈ XOJ552 ✈ 22-Oct-2013 ✈ KSFO - KBJC

Flight Track Log - Related Links

Times and Time Zones

All times are in EDT time to prevent confusion due to time zone crossing. See the XOJ552 flight status page for this flight to view local times or setup timezone preferences in your user account.

Time Position Orientation Groundspeed Altitude Reporting Facility
EDT Latitude Longitude Course Direction KTS MPH feet Rate Location/Type
04:05PM 37.6333 -122.3667 50° Northeast 159 183 1,000  Level Northern Cal TRACON
04:06PM 37.6667 -122.3167 50° Northeast 211 243 4,100 3,240 Climbing Northern Cal TRACON
04:07PM 37.7167 -122.2500 47° Northeast 297 342 7,500 3,300 Climbing Northern Cal TRACON
04:08PM 37.7667 -122.1667 53° Northeast 303 349 10,700 3,120 Climbing Northern Cal TRACON
04:10PM 37.8186 -121.9428 74° East 345 397 17,200 3,060 Climbing Oakland Center
04:11PM 37.8525 -121.8228 70° East 360 414 20,200 2,880 Climbing Oakland Center
04:12PM 37.8869 -121.6997 70° East 371 427 23,100 2,580 Climbing Oakland Center
04:13PM 37.9217 -121.5725 71° East 382 440 25,500 2,340 Climbing Oakland Center
04:14PM 37.9764 -121.4208 65° Northeast 409 471 28,000 2,160 Climbing Oakland Center
04:15PM 38.0322 -121.2928 61° Northeast 418 481 30,000 1,860 Climbing Oakland Center
04:16PM 38.0578 -121.1486 77° East 420 483 31,900 1,620 Climbing Oakland Center
04:17PM 38.0850 -121.0028 77° East 426 490 33,400 1,500 Climbing Oakland Center
04:18PM 38.1114 -120.8536 77° East 434 499 35,000 1,440 Climbing Oakland Center
04:19PM 38.1389 -120.7039 77° East 436 502 36,400 1,500 Climbing Oakland Center
04:20PM 38.1708 -120.5219 77° East 441 507 38,100 1,260 Climbing Oakland Center
04:21PM 38.1975 -120.3706 77° East 440 506 39,100 960 Climbing Oakland Center
04:22PM 38.2250 -120.2206 77° East 440 506 40,100 840 Climbing Oakland Center
04:23PM 38.2506 -120.0664 78° East 444 511 40,900 420 Climbing Oakland Center
04:24PM 38.2769 -119.9136 78° East 443 510 41,000  Climbing Oakland Center
04:25PM 38.3039 -119.7547 78° East 455 524 41,000  Level Oakland Center
04:26PM 38.3319 -119.5975 77° East 458 527 41,000  Level Oakland Center
04:27PM 38.3597 -119.4311 78° East 457 526 41,000  Level Oakland Center
04:28PM 38.3869 -119.2728 78° East 458 527 41,000  Level Oakland Center
04:29PM 38.4131 -119.1153 78° East 458 527 41,000  Level Oakland Center
04:30PM 38.4381 -118.9558 79° East 460 529 41,000  Level Oakland Center
04:31PM 38.4681 -118.7656 79° East 460 529 41,000  Level Oakland Center
04:32PM 38.4947 -118.6083 78° East 456 525 41,000  Level Oakland Center
04:33PM 38.5194 -118.4500 79° East 458 527 41,000  Level Oakland Center
04:34PM 38.5447 -118.2911 78° East 458 527 41,000  Level Oakland Center
04:35PM 38.5692 -118.1319 79° East 457 526 41,000  Level Oakland Center
04:36PM 38.5944 -117.9697 79° East 459 528 41,000  Level Oakland Center
04:37PM 38.6192 -117.8094 79° East 458 527 41,000  Level Oakland Center
04:38PM 38.6431 -117.6506 79° East 454 522 41,000  Level Oakland Center
04:39PM 38.6683 -117.4894 79° East 457 526 41,000  Level Oakland Center
04:40PM 38.6911 -117.3283 80° East 458 527 41,000  Level Oakland Center
04:41PM 38.7153 -117.1678 79° East 457 526 41,000  Level Oakland Center
04:42PM 38.7381 -117.0069 80° East 456 525 41,000  Level Oakland Center
04:43PM 38.7661 -116.8117 80° East 461 531 41,000  Level Oakland Center
04:44PM 38.7900 -116.6517 79° East 457 526 41,000  Level Oakland Center
04:45PM 38.8122 -116.4897 80° East 459 528 41,000  Level Oakland Center
04:46PM 38.8353 -116.3272 80° East 462 532 41,000  Level Oakland Center
04:47PM 38.8567 -116.1683 80° East 460 529 41,000  Level Oakland Center
04:49PM 38.8842 -115.9708 80° East 460 529 41,000  Level Salt Lake Center
04:50PM 38.9056 -115.8083 80° East 462 532 41,000  Level Salt Lake Center
04:51PM 38.9314 -115.6128 80° East 463 533 41,000  Level Salt Lake Center
04:52PM 38.9531 -115.4500 80° East 462 532 41,000  Level Salt Lake Center
04:53PM 38.9739 -115.2992 80° East 464 534 41,000  Level Salt Lake Center
04:54PM 38.9958 -115.1333 80° East 469 540 41,000  Level Salt Lake Center
04:55PM 39.0167 -114.9686 81° East 468 539 41,000  Level Salt Lake Center
04:56PM 39.0425 -114.7692 80° East 470 541 41,000  Level Salt Lake Center
04:57PM 39.0636 -114.6017 81° East 474 545 41,000  Level Salt Lake Center
04:58PM 39.0833 -114.4356 81° East 472 543 41,000  Level Salt Lake Center
04:59PM 39.1042 -114.2683 81° East 473 544 41,000  Level Salt Lake Center
05:00PM 39.1236 -114.1014 81° East 471 542 41,000  Level Salt Lake Center
05:01PM 39.1439 -113.9339 81° East 473 544 41,000  Level Salt Lake Center
05:02PM 39.1631 -113.7664 82° East 472 543 41,000  Level Salt Lake Center
05:03PM 39.1825 -113.5994 81° East 472 543 41,000  Level Salt Lake Center
05:04PM 39.2014 -113.4319 82° East 473 544 41,000  Level Salt Lake Center
05:05PM 39.2242 -113.2306 82° East 473 544 41,000  Level Salt Lake Center
05:06PM 39.2422 -113.0622 82° East 473 544 41,000  Level Salt Lake Center
05:07PM 39.2614 -112.8939 82° East 474 545 41,000  Level Salt Lake Center
05:08PM 39.2794 -112.7269 82° East 471 542 41,000  Level Salt Lake Center
05:09PM 39.2978 -112.5558 82° East 469 540 41,000  Level Salt Lake Center
05:10PM 39.3253 -112.3903 78° East 471 542 41,000  Level Salt Lake Center
05:11PM 39.3553 -112.2269 77° East 472 543 41,000  Level Salt Lake Center
05:12PM 39.3853 -112.0619 77° East 473 544 41,000  Level Salt Lake Center
05:13PM 39.4158 -111.8972 76° East 475 547 41,000  Level Salt Lake Center
05:14PM 39.4514 -111.6994 77° East 474 545 41,000  Level Salt Lake Center
05:15PM 39.4828 -111.5325 76° East 478 550 41,000  Level Salt Lake Center
05:16PM 39.5106 -111.3664 78° East 476 548 41,000  Level Salt Lake Center
05:17PM 39.5419 -111.2036 76° East 481 554 41,000  Level Salt Lake Center
05:19PM 39.5736 -111.0178 77° East 475 547 41,000  Level Salt Lake Center
05:20PM 39.6022 -110.8575 77° East 477 549 41,000  Level Salt Lake Center
05:21PM 39.6333 -110.6669 78° East 482 555 41,000  Level Salt Lake Center
05:22PM 39.6606 -110.5078 77° East 476 548 41,000  Level Salt Lake Center
05:23PM 39.6886 -110.3453 77° East 480 552 41,000  Level Salt Lake Center
05:24PM 39.7197 -110.1581 78° East 478 550 41,000  Level Salt Lake Center
05:25PM 39.7453 -109.9964 78° East 477 549 41,000  Level Salt Lake Center
05:26PM 39.7761 -109.8094 78° East 474 545 41,000  Level Salt Lake Center
05:27PM 39.8069 -109.6200 78° East 477 549 41,000  Level Denver Center
05:28PM 39.8331 -109.4592 78° East 474 545 41,000  Level Denver Center
05:29PM 39.8628 -109.2703 78° East 473 544 41,000  Level Denver Center
05:30PM 39.8850 -109.1361 78° East 476 548 41,000  Level Salt Lake Center
05:31PM 39.9156 -108.9458 78° East 477 549 41,000  Level Salt Lake Center
05:32PM 39.9397 -108.7831 79° East 474 545 41,000  Level Salt Lake Center
05:33PM 39.9686 -108.5917 79° East 474 545 41,000  Level Denver Center
05:34PM 39.9969 -108.4025 79° East 473 544 41,000  Level Denver Center
05:35PM 40.0203 -108.2422 79° East 470 541 41,000  Level Denver Center
05:36PM 40.0475 -108.0547 79° East 471 542 41,000  Level Denver Center
05:37PM 40.0739 -107.8936 78° East 472 543 41,000  Level Denver Center
05:38PM 40.1167 -107.7103 73° East 471 542 41,000  Level Denver Center
05:39PM 40.1531 -107.5528 73° East 473 544 41,000  Level Denver Center
05:40PM 40.1944 -107.3678 74° East 475 547 41,000  Level Denver Center
05:41PM 40.2144 -107.2050 81° East 475 547 41,000 -660 Level Denver Center
05:42PM 40.2286 -107.0406 84° East 475 547 39,700 -1,620 Descending Denver Center
05:43PM 40.2450 -106.8533 83° East 480 552 37,700 -1,860 Descending Denver Center
05:44PM 40.2603 -106.6800 83° East 478 550 35,900 -2,040 Descending Denver Center
05:45PM 40.2758 -106.4869 84° East 478 550 33,600 -2,100 Descending Denver Center
05:46PM 40.2892 -106.3233 84° East 473 544 31,600 -2,220 Descending Denver Center
05:48PM 40.3050 -106.1303 84° East 486 559 29,100 -2,700 Descending Denver Center
05:49PM 40.3183 -105.9575 84° East 479 551 26,100 -3,060 Descending Denver Center
05:50PM 40.3325 -105.7908 84° East 465 535 22,800 -3,300 Descending Denver Center
05:51PM 40.3414 -105.6308 86° East 444 511 19,300 -2,700 Descending Denver Center
05:52PM 40.3514 -105.4847 85° East 409 471 17,300 -1,920 Descending Denver Center
05:53PM 40.2983 -105.3633 120° Southeast 321 369 15,400 -1,980 Descending Denver Center
05:54PM 40.2375 -105.2889 137° Southeast 298 343 13,200 -2,040 Descending Denver Center
05:55PM 40.1764 -105.2169 138° Southeast 278 320 11,200 -1,440 Descending Denver Center
05:56PM 40.1086 -105.2089 175° South 249 287 10,300 -1,140 Descending Denver Center
05:57PM 40.0389 -105.2011 175° South 237 273 8,900 -1,260 Descending Denver Center
05:58PM 39.9786 -105.2036 182° South 223 257 7,700 -1,200 Descending Denver Center
05:59PM 39.9381 -105.1722 149° Southeast 165 190 6,500 -960 Descending Denver Center
06:00PM 39.9153 -105.1283 124° Southeast 147 169 5,700 -780 Descending Denver Center
06:02PM 39.9088 -105.1172 109° East  Level Estimated
06:09PM 39.9088 -105.1172 298° West  Level Estimated
06:10PM 39.9088 -105.1172 298° West  Level Estimated
06:11PM 39.9088 -105.1172 298° West  Level Estimated